Time,TemperatureF,DewpointF,PressureIn,WindDirection,WindDirectionDegrees,WindSpeedMPH,WindSpeedGustMPH,Humidity,HourlyPrecipIn,Conditions,Clouds,dailyrainin,SoftwareType,DateUTC
2013-05-08 00:22:00,58.0,51.0,29.97,SW,228,0.0,0.0,78,0.00,,,0.00,,2013-05-08 05:22:00,
2013-05-08 00:32:00,58.0,51.0,29.97,SW,228,0.0,0.0,78,0.00,,,0.00,,2013-05-08 05:32:00,
2013-05-08 00:42:00,58.0,51.0,29.97,SW,228,0.0,0.0,78,0.00,,,0.00,,2013-05-08 05:42:00,
2013-05-08 00:52:00,58.0,51.0,29.97,SW,228,0.0,0.0,78,0.00,,,0.00,,2013-05-08 05:52:00,
2013-05-08 01:01:00,58.0,51.0,29.97,SW,228,0.0,0.0,78,0.00,,,0.00,,2013-05-08 06:01:00,
2013-05-08 02:22:00,56.0,51.0,29.96,SSE,149,0.0,0.0,82,0.00,,,0.00,,2013-05-08 07:22:00,
2013-05-08 02:32:00,56.0,51.0,29.96,SSE,149,0.0,0.0,82,0.00,,,0.00,,2013-05-08 07:32:00,
2013-05-08 02:42:00,56.0,51.0,29.96,SSE,149,0.0,0.0,82,0.00,,,0.00,,2013-05-08 07:42:00,
2013-05-08 02:52:00,56.0,51.0,29.96,SSE,149,0.0,0.0,82,0.00,,,0.00,,2013-05-08 07:52:00,
2013-05-08 03:01:00,56.0,51.0,29.96,SSE,149,0.0,0.0,82,0.00,,,0.00,,2013-05-08 08:01:00,
2013-05-08 04:02:00,58.0,52.0,29.97,NW,322,0.0,0.0,81,0.00,,,0.00,,2013-05-08 09:02:00,
2013-05-08 04:22:00,58.0,52.0,29.97,NW,322,0.0,0.0,81,0.00,,,0.00,,2013-05-08 09:22:00,
2013-05-08 04:32:00,58.0,52.0,29.97,NW,322,0.0,0.0,81,0.00,,,0.00,,2013-05-08 09:32:00,
2013-05-08 04:42:00,58.0,52.0,29.97,NW,322,0.0,0.0,81,0.00,,,0.00,,2013-05-08 09:42:00,
2013-05-08 04:53:00,58.0,52.0,29.97,NW,322,0.0,0.0,81,0.00,,,0.00,,2013-05-08 09:53:00,
2013-05-08 06:22:00,60.0,52.0,29.98,NW,307,2.0,4.0,76,0.00,,,0.00,,2013-05-08 11:22:00,
2013-05-08 06:32:00,60.0,52.0,29.98,NW,307,2.0,4.0,76,0.00,,,0.00,,2013-05-08 11:32:00,
2013-05-08 06:42:00,60.0,52.0,29.98,NW,307,2.0,4.0,76,0.00,,,0.00,,2013-05-08 11:42:00,
2013-05-08 06:52:00,60.0,52.0,29.98,NW,307,2.0,4.0,76,0.00,,,0.00,,2013-05-08 11:52:00,
2013-05-08 07:01:00,60.0,52.0,29.98,NW,307,2.0,4.0,76,0.00,,,0.00,,2013-05-08 12:01:00,
2013-05-08 08:02:00,59.0,55.0,29.99,ESE,119,0.0,0.0,88,0.01,,,0.02,,2013-05-08 13:02:00,
2013-05-08 08:21:00,59.0,55.0,29.99,ESE,119,0.0,0.0,88,0.01,,,0.02,,2013-05-08 13:21:00,
2013-05-08 08:32:00,59.0,55.0,29.99,ESE,119,0.0,0.0,88,0.01,,,0.02,,2013-05-08 13:32:00,
2013-05-08 08:42:00,59.0,55.0,29.99,ESE,119,0.0,0.0,88,0.01,,,0.02,,2013-05-08 13:42:00,
2013-05-08 08:52:00,59.0,55.0,29.99,ESE,119,0.0,0.0,88,0.01,,,0.02,,2013-05-08 13:52:00,
2013-05-08 10:02:00,64.0,57.0,30.00,South,173,3.0,5.0,79,0.00,,,0.02,,2013-05-08 15:02:00,
2013-05-08 10:22:00,64.0,57.0,30.00,South,173,3.0,5.0,79,0.00,,,0.02,,2013-05-08 15:22:00,
2013-05-08 10:33:00,64.0,57.0,30.00,South,173,3.0,5.0,79,0.00,,,0.02,,2013-05-08 15:33:00,
2013-05-08 10:42:00,64.0,57.0,30.00,South,173,3.0,5.0,79,0.00,,,0.02,,2013-05-08 15:42:00,
2013-05-08 10:53:00,64.0,57.0,30.00,South,173,3.0,5.0,79,0.00,,,0.02,,2013-05-08 15:53:00,
2013-05-08 12:02:00,65.0,56.0,29.98,South,190,7.0,23.0,72,0.00,,,0.02,,2013-05-08 17:02:00,
2013-05-08 12:22:00,65.0,56.0,29.98,South,190,7.0,23.0,72,0.00,,,0.02,,2013-05-08 17:22:00,
2013-05-08 12:32:00,65.0,56.0,29.98,South,190,7.0,23.0,72,0.00,,,0.02,,2013-05-08 17:32:00,
2013-05-08 12:42:00,65.0,56.0,29.98,South,190,7.0,23.0,72,0.00,,,0.02,,2013-05-08 17:42:00,
2013-05-08 12:52:00,65.0,56.0,29.98,South,190,7.0,23.0,72,0.00,,,0.02,,2013-05-08 17:52:00,
2013-05-08 14:02:00,71.0,55.0,29.96,SSE,160,9.0,18.0,57,0.00,,,0.02,,2013-05-08 19:02:00,
2013-05-08 14:22:00,71.0,55.0,29.96,SSE,160,9.0,18.0,57,0.00,,,0.02,,2013-05-08 19:22:00,
2013-05-08 14:32:00,71.0,55.0,29.96,SSE,160,9.0,18.0,57,0.00,,,0.02,,2013-05-08 19:32:00,
2013-05-08 14:42:00,71.0,55.0,29.96,SSE,160,9.0,18.0,57,0.00,,,0.02,,2013-05-08 19:42:00,
2013-05-08 14:52:00,71.0,55.0,29.96,SSE,160,9.0,18.0,57,0.00,,,0.02,,2013-05-08 19:52:00,
2013-05-08 16:02:00,74.0,58.0,29.92,ESE,115,9.0,20.0,57,0.00,,,0.02,,2013-05-08 21:02:00,
2013-05-08 16:22:00,74.0,58.0,29.92,ESE,115,9.0,20.0,57,0.00,,,0.02,,2013-05-08 21:22:00,
2013-05-08 16:33:00,74.0,58.0,29.92,ESE,115,9.0,20.0,57,0.00,,,0.02,,2013-05-08 21:33:00,
2013-05-08 16:43:00,74.0,58.0,29.92,ESE,115,9.0,20.0,57,0.00,,,0.02,,2013-05-08 21:43:00,
2013-05-08 16:53:00,74.0,58.0,29.92,ESE,115,9.0,20.0,57,0.00,,,0.02,,2013-05-08 21:53:00,
2013-05-08 18:02:00,74.0,57.0,29.91,SE,144,13.0,20.0,55,0.00,,,0.02,,2013-05-08 23:02:00,
2013-05-08 18:22:00,74.0,57.0,29.91,SE,144,13.0,20.0,55,0.00,,,0.02,,2013-05-08 23:22:00,
2013-05-08 18:32:00,74.0,57.0,29.91,SE,144,13.0,20.0,55,0.00,,,0.02,,2013-05-08 23:32:00,
2013-05-08 18:42:00,74.0,57.0,29.91,SE,144,13.0,20.0,55,0.00,,,0.02,,2013-05-08 23:42:00,
2013-05-08 18:52:00,74.0,57.0,29.91,SE,144,13.0,20.0,55,0.00,,,0.02,,2013-05-08 23:52:00,